EZY15BN EGCC-LERS
Flight info
| Callsign | EZY15BN |
|---|---|
| Flight time | 1h 51m |
| Altitude | 35000 |
| Route | LISTO P18 TELBA L151 KIDLI UN859 SOPIL DCT BALAN DCT EVPOK DCT NARAK DCT GAI DCT LOMRA DCT ROCAN DCT PUMAL/N0403F230 N31 BERGA |
| Aircraft | A320/M-SDE3FGHIRWY/LB1 |
Departure
| Time | 2026-04-25 10:58 |
|---|---|
| Airport | Manchester Airport (EGCC) |
Arrival
| Time | 2026-04-25 12:49 |
|---|---|
| Airport | Reus Airport (LERS) |
| Time | Latitude | Longitude | Altitude | Speed | Heading |
|---|---|---|---|---|---|
| 2026-04-25 10:58 | 53.06093 | -2.21208 | 12003 ft | 354 kts | 186° |
| 2026-04-25 10:58 | 53.03633 | -2.21587 | 12705 ft | 357 kts | 186° |
| 2026-04-25 10:58 | 53.01145 | -2.21970 | 13405 ft | 360 kts | 186° |
| 2026-04-25 10:58 | 52.98638 | -2.22360 | 14093 ft | 363 kts | 186° |
| 2026-04-25 10:59 | 52.96112 | -2.22757 | 14724 ft | 366 kts | 186° |
| 2026-04-25 10:59 | 52.93564 | -2.23155 | 15345 ft | 369 kts | 186° |
| 2026-04-25 10:59 | 52.90995 | -2.23550 | 15946 ft | 372 kts | 186° |
| 2026-04-25 10:59 | 52.88407 | -2.23950 | 16544 ft | 375 kts | 186° |
| 2026-04-25 11:00 | 52.85798 | -2.24448 | 17113 ft | 378 kts | 192° |
| 2026-04-25 11:00 | 52.83225 | -2.25407 | 17696 ft | 380 kts | 194° |
| 2026-04-25 11:00 | 52.80643 | -2.26404 | 18266 ft | 383 kts | 194° |
| 2026-04-25 11:00 | 52.78029 | -2.27415 | 18788 ft | 386 kts | 194° |
| 2026-04-25 11:01 | 52.75404 | -2.28429 | 19276 ft | 389 kts | 194° |
| 2026-04-25 11:01 | 52.72763 | -2.29446 | 19804 ft | 390 kts | 194° |
| 2026-04-25 11:01 | 52.70072 | -2.30182 | 20306 ft | 394 kts | 185° |
| 2026-04-25 11:01 | 52.67319 | -2.30040 | 20801 ft | 398 kts | 173° |
| 2026-04-25 11:02 | 52.64614 | -2.28990 | 21277 ft | 403 kts | 162° |
| 2026-04-25 11:02 | 52.62060 | -2.27049 | 21740 ft | 407 kts | 150° |
| 2026-04-25 11:02 | 52.59719 | -2.24510 | 22198 ft | 410 kts | 148° |
| 2026-04-25 11:02 | 52.57336 | -2.21880 | 22653 ft | 412 kts | 148° |
| 2026-04-25 11:03 | 52.54944 | -2.19257 | 23108 ft | 415 kts | 148° |
| 2026-04-25 11:03 | 52.52534 | -2.16629 | 23548 ft | 417 kts | 148° |
| 2026-04-25 11:03 | 52.50111 | -2.13993 | 23956 ft | 419 kts | 148° |
| 2026-04-25 11:03 | 52.47671 | -2.11342 | 24323 ft | 421 kts | 149° |
| 2026-04-25 11:04 | 52.45221 | -2.08685 | 24675 ft | 423 kts | 148° |
| 2026-04-25 11:04 | 52.42758 | -2.06018 | 25012 ft | 426 kts | 149° |
| 2026-04-25 11:04 | 52.40281 | -2.03341 | 25352 ft | 428 kts | 149° |
| 2026-04-25 11:04 | 52.38633 | -2.01556 | 25559 ft | 430 kts | 148° |
| 2026-04-25 11:05 | 52.35283 | -1.97929 | 25994 ft | 432 kts | 149° |
| 2026-04-25 11:05 | 52.32764 | -1.95212 | 26322 ft | 435 kts | 149° |
| 2026-04-25 11:05 | 52.30233 | -1.92489 | 26655 ft | 437 kts | 149° |
| 2026-04-25 11:05 | 52.27692 | -1.89761 | 26990 ft | 439 kts | 149° |
| 2026-04-25 11:06 | 52.25134 | -1.87017 | 27273 ft | 441 kts | 149° |
| 2026-04-25 11:06 | 52.22559 | -1.84252 | 27574 ft | 444 kts | 149° |
| 2026-04-25 11:06 | 52.20003 | -1.81510 | 27880 ft | 446 kts | 149° |
| 2026-04-25 11:06 | 52.17401 | -1.78725 | 28180 ft | 448 kts | 149° |
| 2026-04-25 11:07 | 52.14774 | -1.75918 | 28465 ft | 450 kts | 149° |
| 2026-04-25 11:07 | 52.12143 | -1.73110 | 28749 ft | 452 kts | 149° |
| 2026-04-25 11:07 | 52.09515 | -1.70308 | 29025 ft | 454 kts | 149° |
| 2026-04-25 11:07 | 52.06896 | -1.67522 | 29294 ft | 456 kts | 149° |
| 2026-04-25 11:08 | 52.04238 | -1.64695 | 29545 ft | 458 kts | 149° |
| 2026-04-25 11:08 | 52.01569 | -1.61858 | 29797 ft | 460 kts | 149° |
| 2026-04-25 11:08 | 51.98882 | -1.59010 | 30045 ft | 462 kts | 149° |
| 2026-04-25 11:08 | 51.96191 | -1.56166 | 30395 ft | 461 kts | 149° |
| 2026-04-25 11:09 | 51.93509 | -1.53331 | 30714 ft | 460 kts | 149° |
| 2026-04-25 11:09 | 51.90826 | -1.50500 | 31009 ft | 460 kts | 149° |
| 2026-04-25 11:09 | 51.88141 | -1.47672 | 31330 ft | 459 kts | 149° |
| 2026-04-25 11:09 | 51.85465 | -1.44861 | 31650 ft | 458 kts | 149° |
| 2026-04-25 11:10 | 51.82795 | -1.42065 | 32008 ft | 456 kts | 149° |
| 2026-04-25 11:10 | 51.81028 | -1.40216 | 32231 ft | 456 kts | 149° |
| 2026-04-25 11:10 | 51.77403 | -1.36687 | 32642 ft | 452 kts | 157° |
| 2026-04-25 11:10 | 51.74510 | -1.34777 | 32951 ft | 448 kts | 165° |
| 2026-04-25 11:11 | 51.71540 | -1.33279 | 33252 ft | 447 kts | 165° |
| 2026-04-25 11:11 | 51.68607 | -1.31803 | 33555 ft | 446 kts | 165° |
| 2026-04-25 11:11 | 51.65645 | -1.30306 | 33857 ft | 446 kts | 165° |
| 2026-04-25 11:11 | 51.62688 | -1.28806 | 34160 ft | 446 kts | 165° |
| 2026-04-25 11:12 | 51.59729 | -1.27309 | 34428 ft | 445 kts | 165° |
| 2026-04-25 11:12 | 51.56775 | -1.25816 | 34680 ft | 445 kts | 165° |
| 2026-04-25 11:12 | 51.53821 | -1.24325 | 34942 ft | 444 kts | 165° |
| 2026-04-25 11:12 | 51.50871 | -1.22839 | 35161 ft | 444 kts | 165° |
| 2026-04-25 11:13 | 51.48007 | -1.21136 | 35218 ft | 445 kts | 158° |
| 2026-04-25 11:13 | 51.42373 | -1.16975 | 35224 ft | 445 kts | 158° |
| 2026-04-25 11:14 | 51.36739 | -1.12824 | 35229 ft | 445 kts | 158° |
| 2026-04-25 11:14 | 51.31106 | -1.08699 | 35226 ft | 445 kts | 158° |
| 2026-04-25 11:15 | 51.25474 | -1.04593 | 35207 ft | 444 kts | 158° |
| 2026-04-25 11:15 | 51.19862 | -1.00492 | 35210 ft | 444 kts | 158° |
| 2026-04-25 11:16 | 51.11468 | -0.94381 | 35217 ft | 444 kts | 158° |
| 2026-04-25 11:16 | 51.05840 | -0.90312 | 35242 ft | 444 kts | 158° |
| 2026-04-25 11:17 | 51.00216 | -0.86245 | 35239 ft | 444 kts | 158° |
| 2026-04-25 11:17 | 50.94595 | -0.82189 | 35235 ft | 443 kts | 158° |
| 2026-04-25 11:18 | 50.88981 | -0.78147 | 35235 ft | 443 kts | 158° |
| 2026-04-25 11:18 | 50.83510 | -0.73627 | 35228 ft | 446 kts | 150° |
| 2026-04-25 11:19 | 50.78291 | -0.68303 | 35230 ft | 446 kts | 150° |
| 2026-04-25 11:19 | 50.73069 | -0.62997 | 35233 ft | 446 kts | 150° |
| 2026-04-25 11:20 | 50.67845 | -0.57690 | 35233 ft | 447 kts | 150° |
| 2026-04-25 11:20 | 50.62639 | -0.52443 | 35235 ft | 446 kts | 150° |
| 2026-04-25 11:21 | 50.57402 | -0.47167 | 35237 ft | 446 kts | 150° |
| 2026-04-25 11:21 | 50.52177 | -0.41912 | 35238 ft | 446 kts | 150° |
| 2026-04-25 11:22 | 50.47836 | -0.37548 | 35235 ft | 445 kts | 150° |
| 2026-04-25 11:22 | 50.41727 | -0.31439 | 35220 ft | 445 kts | 151° |
| 2026-04-25 11:23 | 50.36532 | -0.26268 | 35229 ft | 444 kts | 151° |
| 2026-04-25 11:23 | 50.31317 | -0.21080 | 35228 ft | 444 kts | 151° |
| 2026-04-25 11:24 | 50.26104 | -0.15896 | 35224 ft | 444 kts | 151° |
| 2026-04-25 11:24 | 50.20893 | -0.10726 | 35221 ft | 444 kts | 151° |
| 2026-04-25 11:25 | 50.15682 | -0.05579 | 35216 ft | 443 kts | 151° |
| 2026-04-25 11:25 | 50.10385 | -0.00681 | 35215 ft | 440 kts | 159° |
| 2026-04-25 11:26 | 50.04603 | 0.02136 | 35199 ft | 435 kts | 169° |
| 2026-04-25 11:26 | 49.98716 | 0.04433 | 35199 ft | 436 kts | 169° |
| 2026-04-25 11:27 | 49.93823 | 0.06366 | 35183 ft | 437 kts | 169° |
| 2026-04-25 11:27 | 49.88927 | 0.08295 | 35188 ft | 437 kts | 169° |
| 2026-04-25 11:28 | 49.82037 | 0.10992 | 35188 ft | 437 kts | 169° |
| 2026-04-25 11:28 | 49.76131 | 0.13296 | 35185 ft | 437 kts | 169° |
| 2026-04-25 11:29 | 49.70236 | 0.15587 | 35180 ft | 436 kts | 169° |
| 2026-04-25 11:29 | 49.64388 | 0.17893 | 35181 ft | 436 kts | 168° |
| 2026-04-25 11:30 | 49.58516 | 0.20275 | 35177 ft | 436 kts | 168° |
| 2026-04-25 11:30 | 49.52644 | 0.22659 | 35181 ft | 436 kts | 168° |
| 2026-04-25 11:31 | 49.46768 | 0.25017 | 35173 ft | 436 kts | 168° |
| 2026-04-25 11:31 | 49.40894 | 0.27361 | 35171 ft | 436 kts | 168° |
| 2026-04-25 11:32 | 49.35010 | 0.29706 | 35185 ft | 436 kts | 168° |
| 2026-04-25 11:32 | 49.29164 | 0.32047 | 35182 ft | 437 kts | 168° |
| 2026-04-25 11:33 | 49.23296 | 0.34497 | 35180 ft | 437 kts | 167° |
| 2026-04-25 11:33 | 49.17434 | 0.36997 | 35163 ft | 437 kts | 167° |
| 2026-04-25 11:34 | 49.11580 | 0.39485 | 35159 ft | 437 kts | 167° |
| 2026-04-25 11:34 | 49.05717 | 0.41943 | 35161 ft | 437 kts | 167° |
| 2026-04-25 11:35 | 48.99856 | 0.44396 | 35147 ft | 437 kts | 167° |
| 2026-04-25 11:35 | 48.93994 | 0.46836 | 35151 ft | 437 kts | 167° |
| 2026-04-25 11:36 | 48.88126 | 0.49278 | 35144 ft | 437 kts | 167° |
| 2026-04-25 11:36 | 48.82292 | 0.51688 | 35139 ft | 438 kts | 167° |
| 2026-04-25 11:37 | 48.76413 | 0.54107 | 35150 ft | 438 kts | 168° |
| 2026-04-25 11:37 | 48.70509 | 0.56434 | 35151 ft | 438 kts | 168° |
| 2026-04-25 11:38 | 48.64603 | 0.58705 | 35144 ft | 438 kts | 168° |
| 2026-04-25 11:38 | 48.58693 | 0.60987 | 35147 ft | 438 kts | 168° |
| 2026-04-25 11:39 | 48.52788 | 0.63291 | 35147 ft | 438 kts | 168° |
| 2026-04-25 11:39 | 48.46934 | 0.65624 | 35148 ft | 438 kts | 167° |
| 2026-04-25 11:40 | 48.41052 | 0.68042 | 35144 ft | 438 kts | 167° |
| 2026-04-25 11:40 | 48.35170 | 0.70461 | 35145 ft | 438 kts | 167° |
| 2026-04-25 11:41 | 48.29287 | 0.72846 | 35146 ft | 438 kts | 167° |
| 2026-04-25 11:41 | 48.23405 | 0.75207 | 35147 ft | 437 kts | 167° |
| 2026-04-25 11:42 | 48.17518 | 0.77537 | 35138 ft | 437 kts | 167° |
| 2026-04-25 11:42 | 48.11630 | 0.79837 | 35138 ft | 437 kts | 168° |
| 2026-04-25 11:43 | 48.05778 | 0.82114 | 35142 ft | 437 kts | 167° |
| 2026-04-25 11:43 | 47.99885 | 0.84426 | 35132 ft | 437 kts | 167° |
| 2026-04-25 11:44 | 47.94003 | 0.86728 | 35128 ft | 437 kts | 167° |
| 2026-04-25 11:44 | 47.88110 | 0.89019 | 35131 ft | 437 kts | 167° |
| 2026-04-25 11:45 | 47.82217 | 0.91304 | 35138 ft | 438 kts | 167° |
| 2026-04-25 11:45 | 47.76318 | 0.93596 | 35126 ft | 438 kts | 167° |
| 2026-04-25 11:46 | 47.70417 | 0.95878 | 35130 ft | 438 kts | 167° |
| 2026-04-25 11:46 | 47.64550 | 0.98140 | 35134 ft | 438 kts | 167° |
| 2026-04-25 11:47 | 47.58635 | 1.00401 | 35127 ft | 438 kts | 167° |
| 2026-04-25 11:47 | 47.52730 | 1.02676 | 35129 ft | 438 kts | 167° |
| 2026-04-25 11:48 | 47.46825 | 1.04955 | 35128 ft | 438 kts | 167° |
| 2026-04-25 11:48 | 47.40846 | 1.06398 | 35127 ft | 434 kts | 181° |
| 2026-04-25 11:49 | 47.34804 | 1.06233 | 35121 ft | 434 kts | 183° |
| 2026-04-25 11:49 | 47.28753 | 1.06093 | 35121 ft | 435 kts | 182° |
| 2026-04-25 11:50 | 47.22688 | 1.05975 | 35129 ft | 435 kts | 182° |
| 2026-04-25 11:50 | 47.16667 | 1.05838 | 35123 ft | 436 kts | 182° |
| 2026-04-25 11:51 | 47.10598 | 1.05689 | 35125 ft | 436 kts | 182° |
| 2026-04-25 11:51 | 47.04522 | 1.05551 | 35128 ft | 436 kts | 182° |
| 2026-04-25 11:52 | 46.98450 | 1.05382 | 35129 ft | 436 kts | 183° |
| 2026-04-25 11:52 | 46.92387 | 1.05094 | 35124 ft | 436 kts | 184° |
| 2026-04-25 11:53 | 46.86363 | 1.04798 | 35125 ft | 436 kts | 184° |
| 2026-04-25 11:53 | 46.80292 | 1.04528 | 35126 ft | 436 kts | 183° |
| 2026-04-25 11:54 | 46.74227 | 1.04280 | 35130 ft | 436 kts | 183° |
| 2026-04-25 11:55 | 46.65133 | 1.03908 | 35127 ft | 436 kts | 183° |
| 2026-04-25 11:55 | 46.59067 | 1.03655 | 35125 ft | 436 kts | 183° |
| 2026-04-25 11:56 | 46.52996 | 1.03447 | 35117 ft | 437 kts | 179° |
| 2026-04-25 11:56 | 46.47023 | 1.04864 | 35120 ft | 439 kts | 169° |
| 2026-04-25 11:57 | 46.41067 | 1.06872 | 35124 ft | 440 kts | 169° |
| 2026-04-25 11:57 | 46.35092 | 1.08869 | 35119 ft | 440 kts | 169° |
| 2026-04-25 11:58 | 46.29117 | 1.10843 | 35121 ft | 440 kts | 169° |
| 2026-04-25 11:58 | 46.23140 | 1.12823 | 35124 ft | 441 kts | 169° |
| 2026-04-25 11:59 | 46.17195 | 1.14808 | 35131 ft | 441 kts | 169° |
| 2026-04-25 11:59 | 46.11216 | 1.16791 | 35132 ft | 441 kts | 169° |
| 2026-04-25 12:00 | 46.02224 | 1.19744 | 35136 ft | 442 kts | 169° |
| 2026-04-25 12:01 | 45.93215 | 1.22706 | 35143 ft | 444 kts | 169° |
| 2026-04-25 12:01 | 45.87189 | 1.24693 | 35147 ft | 445 kts | 169° |
| 2026-04-25 12:02 | 45.78128 | 1.27658 | 35154 ft | 446 kts | 169° |
| 2026-04-25 12:02 | 45.72111 | 1.29620 | 35152 ft | 446 kts | 169° |
| 2026-04-25 12:03 | 45.66055 | 1.31588 | 35150 ft | 446 kts | 169° |
| 2026-04-25 12:03 | 45.59994 | 1.33558 | 35160 ft | 446 kts | 169° |
| 2026-04-25 12:04 | 45.53931 | 1.35518 | 35149 ft | 447 kts | 169° |
| 2026-04-25 12:04 | 45.47865 | 1.37482 | 35150 ft | 447 kts | 169° |
| 2026-04-25 12:05 | 45.41794 | 1.39443 | 35153 ft | 447 kts | 169° |
| 2026-04-25 12:05 | 45.35718 | 1.41402 | 35152 ft | 447 kts | 169° |
| 2026-04-25 12:06 | 45.29640 | 1.43350 | 35162 ft | 448 kts | 169° |
| 2026-04-25 12:06 | 45.23568 | 1.45298 | 35161 ft | 448 kts | 169° |
| 2026-04-25 12:07 | 45.17529 | 1.47229 | 35152 ft | 448 kts | 170° |
| 2026-04-25 12:07 | 45.11449 | 1.49160 | 35152 ft | 448 kts | 170° |
| 2026-04-25 12:08 | 45.05364 | 1.51094 | 35156 ft | 448 kts | 170° |
| 2026-04-25 12:08 | 44.99283 | 1.53025 | 35160 ft | 448 kts | 169° |
| 2026-04-25 12:09 | 44.93197 | 1.54951 | 35154 ft | 448 kts | 169° |
| 2026-04-25 12:09 | 44.87109 | 1.56887 | 35160 ft | 449 kts | 169° |
| 2026-04-25 12:10 | 44.81011 | 1.58820 | 35164 ft | 449 kts | 169° |
| 2026-04-25 12:10 | 44.74910 | 1.60734 | 35167 ft | 449 kts | 169° |
| 2026-04-25 12:11 | 44.68801 | 1.62646 | 35167 ft | 449 kts | 169° |
| 2026-04-25 12:11 | 44.62695 | 1.64565 | 35174 ft | 450 kts | 169° |
| 2026-04-25 12:12 | 44.57621 | 1.66152 | 35172 ft | 450 kts | 169° |
| 2026-04-25 12:12 | 44.50522 | 1.68364 | 35177 ft | 449 kts | 169° |
| 2026-04-25 12:13 | 44.44415 | 1.70260 | 35185 ft | 449 kts | 169° |
| 2026-04-25 12:13 | 44.38312 | 1.72164 | 35180 ft | 449 kts | 169° |
| 2026-04-25 12:14 | 44.32213 | 1.74055 | 35183 ft | 448 kts | 169° |
| 2026-04-25 12:14 | 44.26105 | 1.75815 | 35185 ft | 447 kts | 172° |
| 2026-04-25 12:15 | 44.19958 | 1.77148 | 35189 ft | 447 kts | 174° |
| 2026-04-25 12:15 | 44.15580 | 1.78020 | 35190 ft | 446 kts | 174° |
| 2026-04-25 12:16 | 44.09432 | 1.79304 | 35199 ft | 447 kts | 173° |
| 2026-04-25 12:16 | 44.03299 | 1.80663 | 35187 ft | 446 kts | 173° |
| 2026-04-25 12:17 | 43.97166 | 1.82030 | 35197 ft | 446 kts | 173° |
| 2026-04-25 12:17 | 43.91018 | 1.83099 | 35199 ft | 445 kts | 177° |
| 2026-04-25 12:18 | 43.84845 | 1.83615 | 35193 ft | 444 kts | 179° |
| 2026-04-25 12:18 | 43.78718 | 1.84047 | 35188 ft | 444 kts | 178° |
| 2026-04-25 12:19 | 43.69468 | 1.84904 | 35203 ft | 444 kts | 178° |
| 2026-04-25 12:20 | 43.64349 | 1.85420 | 35197 ft | 443 kts | 178° |
| 2026-04-25 12:20 | 43.58195 | 1.86030 | 35195 ft | 443 kts | 178° |
| 2026-04-25 12:21 | 43.52040 | 1.86621 | 35183 ft | 443 kts | 178° |
| 2026-04-25 12:21 | 43.45887 | 1.87209 | 35178 ft | 443 kts | 178° |
| 2026-04-25 12:22 | 43.39733 | 1.87796 | 35166 ft | 443 kts | 178° |
| 2026-04-25 12:22 | 43.33591 | 1.88379 | 35168 ft | 442 kts | 178° |
| 2026-04-25 12:23 | 43.27446 | 1.88970 | 35167 ft | 442 kts | 178° |
| 2026-04-25 12:23 | 43.21342 | 1.89557 | 35173 ft | 442 kts | 178° |
| 2026-04-25 12:24 | 43.15203 | 1.90148 | 35172 ft | 442 kts | 177° |
| 2026-04-25 12:24 | 43.09066 | 1.90735 | 35176 ft | 442 kts | 177° |
| 2026-04-25 12:25 | 43.02934 | 1.91316 | 35177 ft | 441 kts | 178° |
| 2026-04-25 12:25 | 42.96801 | 1.91889 | 35170 ft | 441 kts | 178° |
| 2026-04-25 12:26 | 42.90669 | 1.92470 | 35175 ft | 441 kts | 178° |
| 2026-04-25 12:26 | 42.84580 | 1.93045 | 34873 ft | 442 kts | 177° |
| 2026-04-25 12:26 | 42.81486 | 1.93335 | 33858 ft | 449 kts | 178° |
| 2026-04-25 12:27 | 42.78347 | 1.93627 | 32862 ft | 454 kts | 178° |
| 2026-04-25 12:27 | 42.75178 | 1.93922 | 31887 ft | 458 kts | 178° |
| 2026-04-25 12:27 | 42.71982 | 1.94222 | 30915 ft | 463 kts | 178° |
| 2026-04-25 12:27 | 42.68782 | 1.94526 | 30338 ft | 458 kts | 177° |
| 2026-04-25 12:28 | 42.65613 | 1.94886 | 29604 ft | 455 kts | 175° |
| 2026-04-25 12:28 | 42.62521 | 1.95403 | 28972 ft | 451 kts | 173° |
| 2026-04-25 12:28 | 42.59433 | 1.96042 | 28326 ft | 447 kts | 172° |
| 2026-04-25 12:28 | 42.56372 | 1.96738 | 27691 ft | 443 kts | 171° |
| 2026-04-25 12:29 | 42.53344 | 1.97439 | 27064 ft | 439 kts | 171° |
| 2026-04-25 12:29 | 42.50338 | 1.98110 | 26441 ft | 436 kts | 172° |
| 2026-04-25 12:29 | 42.47350 | 1.98743 | 25818 ft | 433 kts | 172° |
| 2026-04-25 12:29 | 42.44381 | 1.99347 | 25198 ft | 430 kts | 173° |
| 2026-04-25 12:30 | 42.41426 | 1.99932 | 24597 ft | 428 kts | 173° |
| 2026-04-25 12:30 | 42.38481 | 2.00508 | 24008 ft | 426 kts | 173° |
| 2026-04-25 12:30 | 42.35556 | 2.01057 | 23392 ft | 423 kts | 174° |
| 2026-04-25 12:30 | 42.32646 | 2.01491 | 22821 ft | 418 kts | 175° |
| 2026-04-25 12:31 | 42.29799 | 2.01830 | 22315 ft | 412 kts | 176° |
| 2026-04-25 12:31 | 42.26958 | 2.02126 | 21807 ft | 407 kts | 176° |
| 2026-04-25 12:31 | 42.24150 | 2.02410 | 21312 ft | 402 kts | 176° |
| 2026-04-25 12:31 | 42.21376 | 2.02577 | 20827 ft | 397 kts | 183° |
| 2026-04-25 12:32 | 42.18656 | 2.02056 | 20336 ft | 392 kts | 194° |
| 2026-04-25 12:32 | 42.16107 | 2.00806 | 19835 ft | 390 kts | 206° |
| 2026-04-25 12:32 | 42.13815 | 1.98876 | 19349 ft | 388 kts | 218° |
| 2026-04-25 12:32 | 42.11818 | 1.96437 | 18865 ft | 386 kts | 223° |
| 2026-04-25 12:33 | 42.09867 | 1.93953 | 18375 ft | 385 kts | 223° |
| 2026-04-25 12:33 | 42.07922 | 1.91492 | 17850 ft | 383 kts | 222° |
| 2026-04-25 12:33 | 42.05987 | 1.89053 | 17366 ft | 379 kts | 223° |
| 2026-04-25 12:33 | 42.04095 | 1.86670 | 16903 ft | 376 kts | 223° |
| 2026-04-25 12:34 | 42.02190 | 1.84271 | 16432 ft | 374 kts | 223° |
| 2026-04-25 12:34 | 42.00295 | 1.81888 | 15967 ft | 371 kts | 223° |
| 2026-04-25 12:34 | 41.98415 | 1.79525 | 15497 ft | 369 kts | 223° |
| 2026-04-25 12:34 | 41.97148 | 1.77934 | 15194 ft | 368 kts | 223° |
| 2026-04-25 12:35 | 41.94526 | 1.75083 | 14572 ft | 366 kts | 216° |
| 2026-04-25 12:35 | 41.92455 | 1.73104 | 14120 ft | 364 kts | 216° |
| 2026-04-25 12:35 | 41.90398 | 1.71141 | 13637 ft | 362 kts | 216° |
| 2026-04-25 12:35 | 41.88350 | 1.69190 | 13181 ft | 359 kts | 216° |
| 2026-04-25 12:36 | 41.86323 | 1.67260 | 12734 ft | 356 kts | 216° |
| 2026-04-25 12:36 | 41.84306 | 1.65346 | 12291 ft | 354 kts | 216° |
| 2026-04-25 12:36 | 41.82303 | 1.63445 | 11853 ft | 351 kts | 216° |
| 2026-04-25 12:36 | 41.80327 | 1.61570 | 11594 ft | 342 kts | 216° |
| 2026-04-25 12:37 | 41.78418 | 1.59760 | 11474 ft | 330 kts | 216° |
| 2026-04-25 12:37 | 41.76573 | 1.58010 | 11349 ft | 319 kts | 216° |
| 2026-04-25 12:37 | 41.74782 | 1.56314 | 11178 ft | 311 kts | 214° |
| 2026-04-25 12:37 | 41.72889 | 1.54986 | 10994 ft | 305 kts | 200° |
| 2026-04-25 12:38 | 41.70825 | 1.54279 | 10794 ft | 305 kts | 190° |
| 2026-04-25 12:38 | 41.68738 | 1.53750 | 10534 ft | 306 kts | 190° |
| 2026-04-25 12:38 | 41.66649 | 1.53223 | 10251 ft | 304 kts | 191° |
| 2026-04-25 12:38 | 41.64603 | 1.52706 | 10002 ft | 302 kts | 190° |
| 2026-04-25 12:39 | 41.62550 | 1.52187 | 9721 ft | 299 kts | 190° |
| 2026-04-25 12:39 | 41.60513 | 1.51670 | 9454 ft | 296 kts | 189° |
| 2026-04-25 12:39 | 41.58491 | 1.51157 | 9195 ft | 295 kts | 190° |
| 2026-04-25 12:39 | 41.56479 | 1.50644 | 8947 ft | 294 kts | 189° |
| 2026-04-25 12:40 | 41.54456 | 1.50364 | 8693 ft | 291 kts | 177° |
| 2026-04-25 12:40 | 41.52461 | 1.50686 | 8438 ft | 288 kts | 169° |
| 2026-04-25 12:40 | 41.50497 | 1.51136 | 8196 ft | 286 kts | 168° |
| 2026-04-25 12:40 | 41.48540 | 1.51575 | 7944 ft | 284 kts | 168° |
| 2026-04-25 12:41 | 41.46594 | 1.52009 | 7696 ft | 283 kts | 169° |
| 2026-04-25 12:41 | 41.44663 | 1.52440 | 7449 ft | 281 kts | 169° |
| 2026-04-25 12:41 | 41.42741 | 1.52870 | 7201 ft | 279 kts | 168° |
| 2026-04-25 12:41 | 41.40817 | 1.53303 | 6957 ft | 280 kts | 168° |
| 2026-04-25 12:42 | 41.38895 | 1.53733 | 6709 ft | 279 kts | 167° |
| 2026-04-25 12:42 | 41.37630 | 1.54017 | 6556 ft | 278 kts | 168° |
| 2026-04-25 12:42 | 41.35064 | 1.54419 | 6166 ft | 279 kts | 180° |
| 2026-04-25 12:42 | 41.33155 | 1.53982 | 5849 ft | 279 kts | 197° |
| 2026-04-25 12:43 | 41.31399 | 1.52947 | 5552 ft | 278 kts | 204° |
| 2026-04-25 12:43 | 41.29682 | 1.51838 | 5275 ft | 270 kts | 203° |
| 2026-04-25 12:43 | 41.26346 | 1.49706 | 4741 ft | 261 kts | 203° |
| 2026-04-25 12:44 | 41.24768 | 1.48554 | 4483 ft | 259 kts | 215° |
| 2026-04-25 12:44 | 41.23546 | 1.46806 | 4210 ft | 258 kts | 237° |
| 2026-04-25 12:44 | 41.22203 | 1.42498 | 3713 ft | 251 kts | 248° |
| 2026-04-25 12:45 | 41.21582 | 1.40339 | 3455 ft | 250 kts | 248° |
| 2026-04-25 12:45 | 41.20958 | 1.38183 | 3211 ft | 249 kts | 248° |
| 2026-04-25 12:45 | 41.19732 | 1.33947 | 2690 ft | 238 kts | 248° |
| 2026-04-25 12:46 | 41.19152 | 1.31941 | 2385 ft | 228 kts | 248° |
| 2026-04-25 12:46 | 41.18596 | 1.30020 | 2092 ft | 217 kts | 248° |
| 2026-04-25 12:46 | 41.18075 | 1.28220 | 1827 ft | 199 kts | 249° |
| 2026-04-25 12:46 | 41.17602 | 1.26583 | 1602 ft | 180 kts | 248° |
| 2026-04-25 12:47 | 41.17176 | 1.25112 | 1332 ft | 162 kts | 248° |
| 2026-04-25 12:47 | 41.16784 | 1.23781 | 1073 ft | 149 kts | 247° |
| 2026-04-25 12:47 | 41.16420 | 1.22529 | 893 ft | 142 kts | 246° |
| 2026-04-25 12:47 | 41.16075 | 1.21325 | 709 ft | 139 kts | 245° |
| 2026-04-25 12:48 | 41.15723 | 1.20116 | 553 ft | 142 kts | 245° |
| 2026-04-25 12:48 | 41.15369 | 1.18894 | 360 ft | 141 kts | 246° |
| 2026-04-25 12:48 | 41.15025 | 1.17691 | 244 ft | 132 kts | 244° |
| 2026-04-25 12:48 | 41.14773 | 1.16834 | 242 ft | 68 kts | 248° |
| 2026-04-25 12:49 | 41.14629 | 1.16341 | 242 ft | 51 kts | 249° |
| 2026-04-25 12:49 | 41.14551 | 1.16069 | 242 ft | 17 kts | 249° |
| 2026-04-25 12:49 | 41.14538 | 1.15922 | 242 ft | 16 kts | 309° |
| 2026-04-25 12:49 | 41.14623 | 1.15872 | 242 ft | 12 kts | 340° |
| 2026-04-25 12:50 | 41.14645 | 1.15787 | 242 ft | 12 kts | 251° |
| 2026-04-25 12:50 | 41.14617 | 1.15692 | 242 ft | 11 kts | 248° |
| 2026-04-25 12:50 | 41.14601 | 1.15611 | 242 ft | 8 kts | 275° |
| 2026-04-25 12:50 | 41.14612 | 1.15590 | 242 ft | 1 kts | 313° |
| 2026-04-25 12:51 | 41.14624 | 1.15581 | 242 ft | 3 kts | 336° |
| 2026-04-25 12:51 | 41.14641 | 1.15573 | 242 ft | 2 kts | 339° |
| 2026-04-25 12:51 | 41.14659 | 1.15563 | 242 ft | 2 kts | 339° |
| 2026-04-25 12:51 | 41.14671 | 1.15557 | 242 ft | 0 kts | 339° |